createdAt,value
2023-01-25T00:00:36.434Z,0.34
2023-01-25T00:03:03.292Z,0.28
2023-01-25T00:05:30.032Z,0.24
2023-01-25T00:07:58.791Z,0.27
2023-01-25T00:10:25.572Z,0.30
2023-01-25T00:12:52.239Z,0.24
2023-01-25T00:15:21.498Z,0.20
2023-01-25T00:17:48.181Z,0.19
2023-01-25T00:20:15.307Z,0.23
2023-01-25T00:22:42.065Z,0.28
2023-01-25T00:25:09.668Z,0.32
2023-01-25T00:27:36.588Z,0.33
2023-01-25T00:30:04.617Z,0.35
2023-01-25T00:32:48.128Z,0.24
2023-01-25T00:35:15.382Z,0.24
2023-01-25T00:37:51.711Z,0.17
2023-01-25T00:40:18.864Z,0.17
2023-01-25T00:42:45.791Z,0.16
2023-01-25T00:45:13.309Z,0.11
2023-01-25T00:47:40.276Z,0.05
2023-01-25T00:50:08.084Z,0.03
2023-01-25T00:52:34.817Z,-0.04
2023-01-25T00:55:01.508Z,0.12
2023-01-25T00:57:29.602Z,0.14
2023-01-25T00:59:56.404Z,0.14
2023-01-25T01:02:23.219Z,0.08
2023-01-25T01:04:50.020Z,0.09
2023-01-25T01:07:16.782Z,0.08
2023-01-25T01:09:43.738Z,0.11
2023-01-25T01:12:10.560Z,0.12
2023-01-25T01:14:37.576Z,0.08
2023-01-25T01:17:04.334Z,0.01
2023-01-25T01:19:31.910Z,-0.03
2023-01-25T01:21:58.632Z,-0.06
2023-01-25T01:24:25.507Z,-0.07
2023-01-25T01:26:52.240Z,-0.06
2023-01-25T01:29:19.001Z,-0.11
2023-01-25T01:31:45.829Z,-0.15
2023-01-25T01:34:14.825Z,-0.20
2023-01-25T01:36:41.699Z,-0.25
2023-01-25T01:39:09.113Z,-0.25
2023-01-25T01:41:36.428Z,-0.24
2023-01-25T01:44:03.564Z,-0.25
2023-01-25T01:46:35.977Z,-0.29
2023-01-25T01:49:19.769Z,-0.35
2023-01-25T01:51:48.162Z,-0.38
2023-01-25T01:54:26.125Z,-0.40
2023-01-25T01:56:59.538Z,-0.38
2023-01-25T01:59:31.989Z,-0.39
2023-01-25T02:01:58.939Z,-0.42
2023-01-25T02:04:27.893Z,-0.49
2023-01-25T02:07:08.134Z,-0.49
2023-01-25T02:09:45.060Z,-0.48
2023-01-25T02:12:18.137Z,-0.50
2023-01-25T02:14:49.559Z,-0.52
2023-01-25T02:17:27.008Z,-0.49
2023-01-25T02:20:19.952Z,-0.46
2023-01-25T02:23:31.690Z,-0.45
2023-01-25T02:26:03.373Z,-0.45
2023-01-25T02:28:35.916Z,-0.45
2023-01-25T02:31:02.742Z,-0.45
2023-01-25T02:33:29.751Z,-0.43
2023-01-25T02:36:14.642Z,-0.40
2023-01-25T02:38:57.716Z,-0.34
2023-01-25T02:41:41.446Z,-0.35
2023-01-25T02:44:17.944Z,-0.42
2023-01-25T02:46:45.300Z,-0.37
2023-01-25T02:49:12.263Z,-0.39
2023-01-25T02:51:42.516Z,-0.36
2023-01-25T02:54:11.069Z,-0.39
2023-01-25T02:56:40.903Z,-0.35
2023-01-25T02:59:13.304Z,-0.32
2023-01-25T03:01:44.447Z,-0.29
2023-01-25T03:04:11.705Z,-0.27
2023-01-25T03:06:39.089Z,-0.21
2023-01-25T03:09:07.407Z,-0.38
2023-01-25T03:11:34.544Z,-0.20
2023-01-25T03:14:01.691Z,-0.21
2023-01-25T03:16:30.842Z,-0.22
2023-01-25T03:18:57.744Z,-0.19
2023-01-25T03:21:26.977Z,-0.17
2023-01-25T03:23:58.972Z,-0.15
2023-01-25T03:26:27.151Z,-0.20
2023-01-25T03:28:53.879Z,-0.14
2023-01-25T03:31:20.892Z,-0.19
2023-01-25T03:36:29.341Z,-0.18
2023-01-25T03:38:56.047Z,-0.15
2023-01-25T03:41:22.739Z,-0.16
2023-01-25T03:43:49.438Z,-0.16
2023-01-25T03:46:16.159Z,-0.18
2023-01-25T03:48:42.866Z,-0.19
2023-01-25T03:51:09.850Z,-0.21
2023-01-25T03:53:36.639Z,-0.15
2023-01-25T03:56:09.634Z,-0.12
2023-01-25T03:58:38.471Z,-0.07
2023-01-25T04:01:07.118Z,-0.04
2023-01-25T04:03:34.595Z,-0.01
2023-01-25T04:06:01.407Z,-0.03
2023-01-25T04:08:28.712Z,-0.04
2023-01-25T04:11:00.457Z,-0.07
2023-01-25T04:13:28.193Z,-0.11
2023-01-25T04:15:55.594Z,-0.14
2023-01-25T04:18:22.422Z,-0.16
2023-01-25T04:20:58.728Z,-0.13
2023-01-25T04:23:26.625Z,-0.08
2023-01-25T04:25:54.317Z,-0.07
2023-01-25T04:28:21.293Z,-0.11
2023-01-25T04:30:48.128Z,-0.12
2023-01-25T04:33:15.016Z,-0.12
2023-01-25T04:35:41.959Z,-0.17
2023-01-25T04:38:10.135Z,-0.19
2023-01-25T04:40:37.049Z,-0.15
2023-01-25T04:43:04.151Z,-0.15
2023-01-25T04:45:30.891Z,-0.12
2023-01-25T04:47:59.504Z,-0.09
2023-01-25T04:50:27.536Z,-0.11
2023-01-25T04:52:54.767Z,-0.12
2023-01-25T04:55:21.941Z,-0.12
2023-01-25T04:57:51.576Z,-0.16
2023-01-25T05:00:19.676Z,-0.14
2023-01-25T05:02:46.693Z,-0.11
2023-01-25T05:05:13.834Z,-0.21
2023-01-25T05:07:40.787Z,-0.14
2023-01-25T05:10:08.544Z,-0.24
2023-01-25T05:12:35.366Z,-0.05
2023-01-25T05:15:02.492Z,-0.02
2023-01-25T05:17:30.585Z,0.05
2023-01-25T05:19:57.341Z,0.07
2023-01-25T05:22:24.522Z,0.04
2023-01-25T05:24:51.271Z,0.01
2023-01-25T05:27:22.553Z,0.03
2023-01-25T05:29:51.876Z,0.04
2023-01-25T05:32:47.993Z,-0.08
2023-01-25T05:35:17.032Z,0.04
2023-01-25T05:37:43.643Z,0.04
2023-01-25T05:40:11.029Z,0.06
2023-01-25T05:42:37.765Z,0.07
2023-01-25T05:45:04.922Z,0.08
2023-01-25T05:47:31.713Z,0.07
2023-01-25T05:49:58.474Z,0.07
2023-01-25T05:52:25.371Z,0.08
2023-01-25T05:54:52.104Z,0.12
2023-01-25T05:57:18.892Z,0.11
2023-01-25T05:59:48.242Z,0.10
2023-01-25T06:02:15.081Z,0.09
2023-01-25T06:04:41.895Z,0.06
2023-01-25T06:07:08.644Z,0.04
2023-01-25T06:09:35.394Z,0.06
2023-01-25T06:12:06.213Z,0.07
2023-01-25T06:14:36.003Z,0.11
2023-01-25T06:17:02.745Z,0.10
2023-01-25T06:19:29.497Z,0.17
2023-01-25T06:21:56.224Z,0.21
2023-01-25T06:24:22.906Z,0.24
2023-01-25T06:26:49.692Z,0.23
2023-01-25T06:29:16.503Z,0.21
2023-01-25T06:31:43.505Z,0.08
2023-01-25T06:34:10.376Z,0.25
2023-01-25T06:36:37.122Z,0.30
2023-01-25T06:39:04.081Z,0.34
2023-01-25T06:41:33.156Z,0.37
2023-01-25T06:43:59.754Z,0.32
2023-01-25T06:46:26.832Z,0.32
2023-01-25T06:48:53.583Z,0.28
2023-01-25T06:51:23.084Z,0.29
2023-01-25T06:53:52.519Z,0.27
2023-01-25T06:56:24.223Z,0.23
2023-01-25T06:58:50.954Z,0.22
2023-01-25T07:01:22.744Z,0.23
2023-01-25T07:03:51.456Z,0.21
2023-01-25T07:06:19.270Z,0.22
2023-01-25T07:08:46.370Z,0.22
2023-01-25T07:11:14.696Z,0.22
2023-01-25T07:13:42.785Z,0.26
2023-01-25T07:16:17.580Z,0.28
2023-01-25T07:18:44.552Z,0.25
2023-01-25T07:21:17.896Z,0.24
2023-01-25T07:23:44.964Z,0.30
2023-01-25T07:26:32.202Z,0.27
2023-01-25T07:28:59.677Z,0.31
2023-01-25T07:31:27.025Z,0.33
2023-01-25T07:33:56.679Z,0.37
2023-01-25T07:36:24.729Z,0.43
2023-01-25T07:38:56.077Z,0.44
2023-01-25T07:41:24.763Z,0.45
2023-01-25T07:43:52.129Z,0.44
2023-01-25T07:46:22.800Z,0.47
2023-01-25T07:48:52.027Z,0.45
2023-01-25T07:51:25.149Z,0.46
2023-01-25T07:53:54.605Z,0.52
2023-01-25T07:56:26.766Z,0.44
2023-01-25T07:58:55.395Z,0.55
2023-01-25T08:01:24.805Z,0.50
2023-01-25T08:03:52.409Z,0.48
2023-01-25T08:06:30.790Z,0.49
2023-01-25T08:08:59.111Z,0.49
2023-01-25T08:11:28.586Z,0.47
2023-01-25T08:13:56.058Z,0.40
2023-01-25T08:16:25.819Z,0.29
2023-01-25T08:18:57.524Z,0.29
2023-01-25T08:21:26.676Z,0.26
2023-01-25T08:23:55.154Z,0.17
2023-01-25T08:26:21.949Z,0.12
2023-01-25T08:28:52.211Z,0.11
2023-01-25T08:31:22.111Z,0.12
2023-01-25T08:33:52.807Z,0.16
2023-01-25T08:36:20.800Z,0.23
2023-01-25T08:38:48.599Z,0.22
2023-01-25T08:41:18.580Z,0.16
2023-01-25T08:43:46.634Z,0.16
2023-01-25T08:46:15.669Z,0.19
2023-01-25T08:48:42.387Z,0.19
2023-01-25T08:51:12.696Z,0.20
2023-01-25T08:53:39.477Z,0.19
2023-01-25T08:56:11.737Z,0.26
2023-01-25T08:58:47.171Z,0.41
2023-01-25T09:01:16.649Z,0.49
2023-01-25T09:03:46.095Z,0.59
2023-01-25T09:06:13.457Z,0.59
2023-01-25T09:08:40.494Z,0.62
2023-01-25T09:11:12.390Z,0.62
2023-01-25T09:13:40.177Z,0.67
2023-01-25T09:16:10.059Z,0.69
2023-01-25T09:18:37.976Z,0.48
2023-01-25T09:21:13.532Z,0.56
2023-01-25T09:23:50.667Z,0.51
2023-01-25T09:26:19.133Z,0.34
2023-01-25T09:28:58.348Z,0.49
2023-01-25T09:31:25.616Z,0.52
2023-01-25T09:33:53.692Z,0.53
2023-01-25T09:36:23.336Z,0.51
2023-01-25T09:38:50.068Z,0.53
2023-01-25T09:41:31.998Z,0.59
2023-01-25T09:44:14.960Z,0.64
2023-01-25T09:46:49.973Z,0.62
2023-01-25T09:49:38.469Z,0.60
2023-01-25T09:52:27.009Z,0.55
2023-01-25T09:54:53.932Z,0.48
2023-01-25T09:57:37.708Z,0.45
2023-01-25T10:00:17.814Z,0.45
2023-01-25T10:02:54.456Z,0.32
2023-01-25T10:05:25.408Z,0.36
2023-01-25T10:07:58.687Z,0.37
2023-01-25T10:10:35.852Z,0.41
2023-01-25T10:13:05.744Z,0.38
2023-01-25T10:15:48.100Z,0.44
2023-01-25T10:18:22.162Z,0.44
2023-01-25T10:20:58.095Z,0.45
2023-01-25T10:23:46.221Z,0.48
2023-01-25T10:26:28.861Z,0.43
2023-01-25T10:29:30.027Z,0.32
2023-01-25T10:32:14.822Z,0.23
2023-01-25T10:34:56.827Z,0.22
2023-01-25T10:37:32.804Z,0.21
2023-01-25T10:39:59.488Z,0.27
2023-01-25T10:42:29.863Z,0.27
2023-01-25T10:44:56.626Z,0.29
2023-01-25T10:47:27.759Z,0.34
2023-01-25T10:49:59.118Z,0.38
2023-01-25T10:52:30.320Z,0.41
2023-01-25T10:55:18.884Z,0.38
2023-01-25T10:57:49.808Z,0.31
2023-01-25T11:00:36.607Z,0.33
2023-01-25T11:03:04.101Z,0.34
2023-01-25T11:05:38.231Z,0.35
2023-01-25T11:08:32.828Z,0.37
2023-01-25T11:11:13.004Z,0.34
2023-01-25T11:13:41.905Z,0.22
2023-01-25T11:16:30.937Z,0.24
2023-01-25T11:18:59.907Z,0.28
2023-01-25T11:21:29.653Z,0.22
2023-01-25T11:24:04.642Z,0.26
2023-01-25T11:26:34.109Z,0.32
2023-01-25T11:29:22.215Z,0.32
2023-01-25T11:31:54.984Z,0.27
2023-01-25T11:34:26.631Z,0.25
2023-01-25T11:37:04.394Z,0.29
2023-01-25T11:39:40.052Z,0.33
2023-01-25T11:42:06.725Z,0.34
2023-01-25T11:44:53.798Z,0.34
2023-01-25T11:47:58.598Z,0.34
2023-01-25T11:51:00.686Z,0.29
2023-01-25T11:53:33.221Z,0.23
2023-01-25T11:56:11.757Z,0.19
2023-01-25T11:59:09.100Z,0.12
2023-01-25T12:02:01.923Z,0.13
2023-01-25T12:04:39.884Z,0.13
2023-01-25T12:07:14.354Z,0.14
2023-01-25T12:09:49.483Z,0.04
2023-01-25T12:12:22.271Z,0.03
2023-01-25T12:14:57.642Z,0.05
2023-01-25T12:17:30.216Z,0.03
2023-01-25T12:20:25.986Z,0.01
2023-01-25T12:23:01.396Z,-0.04
2023-01-25T12:25:28.097Z,0.01
2023-01-25T12:28:00.556Z,0.06
2023-01-25T12:30:59.463Z,0.04
2023-01-25T12:34:04.999Z,0.02
2023-01-25T12:36:36.340Z,0.02
2023-01-25T12:39:10.915Z,0.04
2023-01-25T12:41:46.310Z,-0.01
2023-01-25T12:44:25.889Z,-0.07
2023-01-25T12:47:07.428Z,-0.14
2023-01-25T12:49:49.606Z,-0.20
2023-01-25T12:52:41.446Z,-0.18
2023-01-25T12:55:14.485Z,-0.12
2023-01-25T12:58:07.336Z,-0.11
2023-01-25T13:00:56.114Z,-0.17
2023-01-25T13:03:31.830Z,-0.17
2023-01-25T13:06:18.031Z,-0.27
2023-01-25T13:08:48.912Z,-0.35
2023-01-25T13:11:33.665Z,-0.39
2023-01-25T13:14:18.799Z,-0.35
2023-01-25T13:16:51.820Z,-0.50
2023-01-25T13:19:31.694Z,-0.35
2023-01-25T13:22:00.028Z,-0.31
2023-01-25T13:24:29.091Z,-0.30
2023-01-25T13:26:55.856Z,-0.26
2023-01-25T13:29:42.102Z,-0.23
2023-01-25T13:32:11.531Z,-0.33
2023-01-25T13:34:42.614Z,-0.31
2023-01-25T13:37:25.209Z,-0.30
2023-01-25T13:40:07.550Z,-0.28
2023-01-25T13:42:37.443Z,-0.28
2023-01-25T13:45:15.731Z,-0.29
2023-01-25T13:50:32.104Z,-0.30
2023-01-25T13:53:02.103Z,-0.28
2023-01-25T13:55:30.636Z,-0.28
2023-01-25T13:58:32.783Z,-0.32
2023-01-25T14:01:06.486Z,-0.36
2023-01-25T14:03:39.523Z,-0.37
2023-01-25T14:06:14.476Z,-0.36
2023-01-25T14:08:44.289Z,-0.38
2023-01-25T14:11:21.248Z,-0.33
2023-01-25T14:13:59.911Z,-0.34
2023-01-25T14:16:30.011Z,-0.35
2023-01-25T14:19:18.867Z,-0.44
2023-01-25T14:21:45.649Z,-0.44
2023-01-25T14:24:17.698Z,-0.41
2023-01-25T14:26:47.316Z,-0.45
2023-01-25T14:29:32.691Z,-0.47
2023-01-25T14:34:43.784Z,-0.39
2023-01-25T14:37:21.811Z,-0.38
2023-01-25T14:39:51.019Z,-0.39
2023-01-25T14:42:18.684Z,-0.35
2023-01-25T14:44:47.073Z,-0.33
2023-01-25T14:47:31.437Z,-0.36
2023-01-25T14:50:29.125Z,-0.35
2023-01-25T14:52:57.341Z,-0.38
2023-01-25T14:55:25.288Z,-0.43
2023-01-25T14:57:53.357Z,-0.42
2023-01-25T15:00:21.569Z,-0.41
2023-01-25T15:02:58.764Z,-0.38
2023-01-25T15:05:28.955Z,-0.36
2023-01-25T15:08:26.226Z,-0.37
2023-01-25T15:11:10.630Z,-0.40
2023-01-25T15:13:37.418Z,-0.40
2023-01-25T15:16:08.244Z,-0.42
2023-01-25T15:18:53.987Z,-0.33
2023-01-25T15:21:28.682Z,-0.34
2023-01-25T15:23:57.299Z,-0.48
2023-01-25T15:26:34.120Z,-0.33
2023-01-25T15:29:05.755Z,-0.50
2023-01-25T15:31:35.027Z,-0.34
2023-01-25T15:34:02.831Z,-0.35
2023-01-25T15:36:31.169Z,-0.45
2023-01-25T15:38:58.111Z,-0.39
2023-01-25T15:41:24.934Z,-0.50
2023-01-25T15:43:52.507Z,-0.56
2023-01-25T15:46:26.319Z,-0.60
2023-01-25T15:48:53.699Z,-0.61
2023-01-25T15:51:24.067Z,-0.64
2023-01-25T15:53:51.041Z,-0.64
2023-01-25T15:56:20.671Z,-0.60
2023-01-25T15:58:51.704Z,-0.75
2023-01-25T16:01:18.876Z,-0.70
2023-01-25T16:03:45.708Z,-0.66
2023-01-25T16:06:48.026Z,-0.61
2023-01-25T16:09:19.205Z,-0.60
2023-01-25T16:11:48.088Z,-0.60
2023-01-25T16:14:14.989Z,-0.60
2023-01-25T16:16:45.945Z,-0.56
2023-01-25T16:19:18.195Z,-0.59
2023-01-25T16:24:26.967Z,-0.61
2023-01-25T16:26:56.014Z,-0.63
2023-01-25T16:29:25.650Z,-0.65
2023-01-25T16:31:53.845Z,-0.74
2023-01-25T16:34:21.252Z,-0.59
2023-01-25T16:36:53.415Z,-0.60
2023-01-25T16:39:25.591Z,-0.61
2023-01-25T16:41:52.606Z,-0.55
2023-01-25T16:44:19.416Z,-0.53
2023-01-25T16:46:48.327Z,-0.57
2023-01-25T16:49:23.680Z,-0.66
2023-01-25T16:51:50.871Z,-0.73
2023-01-25T16:54:20.053Z,-0.72
2023-01-25T16:56:47.779Z,-0.67
2023-01-25T16:59:14.588Z,-0.68
2023-01-25T17:01:43.789Z,-0.78
2023-01-25T17:04:10.910Z,-0.63
2023-01-25T17:06:40.298Z,-0.62
2023-01-25T17:09:21.980Z,-0.66
2023-01-25T17:11:49.586Z,-0.67
2023-01-25T17:14:19.214Z,-0.75
2023-01-25T17:16:48.431Z,-0.63
2023-01-25T17:19:17.206Z,-0.60
2023-01-25T17:21:44.793Z,-0.61
2023-01-25T17:24:14.940Z,-0.57
2023-01-25T17:26:42.292Z,-0.53
2023-01-25T17:29:10.524Z,-0.52
2023-01-25T17:31:38.345Z,-0.70
2023-01-25T17:34:07.600Z,-0.58
2023-01-25T17:36:34.608Z,-0.62
2023-01-25T17:39:08.108Z,-0.68
2023-01-25T17:41:37.838Z,-0.61
2023-01-25T17:44:04.675Z,-0.60
2023-01-25T17:46:37.350Z,-0.60
2023-01-25T17:49:06.461Z,-0.60
2023-01-25T17:51:34.294Z,-0.65
2023-01-25T17:54:01.448Z,-0.83
2023-01-25T17:56:28.337Z,-0.71
2023-01-25T17:58:55.354Z,-0.83
2023-01-25T18:01:28.394Z,-0.78
2023-01-25T18:03:56.577Z,-0.83
2023-01-25T18:06:29.067Z,-0.80
2023-01-25T18:09:00.073Z,-0.81
2023-01-25T18:11:31.072Z,-0.86
2023-01-25T18:14:01.751Z,-0.89
2023-01-25T18:16:31.054Z,-0.90
2023-01-25T18:19:02.201Z,-0.88
2023-01-25T18:21:32.222Z,-0.91
2023-01-25T18:24:03.221Z,-0.91
2023-01-25T18:26:34.430Z,-0.84
2023-01-25T18:29:39.429Z,-0.77
2023-01-25T18:32:06.727Z,-0.77
2023-01-25T18:34:33.795Z,-0.72
2023-01-25T18:37:00.551Z,-0.73
2023-01-25T18:39:29.311Z,-0.71
2023-01-25T18:42:12.317Z,-0.71
2023-01-25T18:44:39.039Z,-0.73
2023-01-25T18:47:05.933Z,-0.73
2023-01-25T18:49:32.692Z,-0.85
2023-01-25T18:52:10.937Z,-0.75
2023-01-25T18:54:38.294Z,-0.82
2023-01-25T18:57:06.924Z,-0.79
2023-01-25T18:59:33.933Z,-0.80
2023-01-25T19:02:00.826Z,-0.86
2023-01-25T19:04:30.017Z,-0.96
2023-01-25T19:07:01.670Z,-0.82
2023-01-25T19:09:28.806Z,-0.78
2023-01-25T19:11:56.139Z,-0.83
2023-01-25T19:14:23.499Z,-0.85
2023-01-25T19:16:50.824Z,-0.79
2023-01-25T19:19:18.409Z,-0.77
2023-01-25T19:21:45.149Z,-0.88
2023-01-25T19:24:13.956Z,-0.92
2023-01-25T19:26:41.206Z,-0.92
2023-01-25T19:29:08.889Z,-1.01
2023-01-25T19:31:38.879Z,-1.01
2023-01-25T19:34:07.883Z,-1.03
2023-01-25T19:36:36.957Z,-1.11
2023-01-25T19:39:04.382Z,-1.12
2023-01-25T19:41:32.988Z,-1.14
2023-01-25T19:44:01.427Z,-1.30
2023-01-25T19:46:33.215Z,-1.28
2023-01-25T19:49:02.107Z,-1.32
2023-01-25T19:51:33.825Z,-1.31
2023-01-25T19:54:10.400Z,-1.34
2023-01-25T19:56:39.644Z,-1.44
2023-01-25T19:59:08.983Z,-1.41
2023-01-25T20:01:36.696Z,-1.42
2023-01-25T20:04:06.035Z,-1.50
2023-01-25T20:06:33.172Z,-1.47
2023-01-25T20:08:59.979Z,-1.54
2023-01-25T20:11:28.898Z,-1.53
2023-01-25T20:13:58.485Z,-1.50
2023-01-25T20:19:13.704Z,-1.54
2023-01-25T20:21:40.468Z,-1.51
2023-01-25T20:24:11.649Z,-1.51
2023-01-25T20:26:42.623Z,-1.54
2023-01-25T20:29:11.115Z,-1.52
2023-01-25T20:31:41.296Z,-1.51
2023-01-25T20:34:12.652Z,-1.57
2023-01-25T20:36:39.911Z,-1.59
2023-01-25T20:39:07.982Z,-1.68
2023-01-25T20:41:36.897Z,-1.90
2023-01-25T20:44:08.746Z,-1.80
2023-01-25T20:46:40.488Z,-1.78
2023-01-25T20:49:18.420Z,-1.76
2023-01-25T20:51:46.298Z,-1.78
2023-01-25T20:54:13.553Z,-1.73
2023-01-25T20:56:40.443Z,-1.73
2023-01-25T20:59:15.852Z,-1.72
2023-01-25T21:01:42.713Z,-1.73
2023-01-25T21:04:13.528Z,-1.78
2023-01-25T21:09:22.460Z,-1.77
2023-01-25T21:11:51.723Z,-1.77
2023-01-25T21:14:19.555Z,-1.92
2023-01-25T21:16:46.253Z,-1.76
2023-01-25T21:19:12.997Z,-1.74
2023-01-25T21:21:39.773Z,-1.74
2023-01-25T21:24:06.892Z,-1.74
2023-01-25T21:26:36.079Z,-1.69
2023-01-25T21:29:08.987Z,-1.64
2023-01-25T21:31:38.581Z,-1.63
2023-01-25T21:34:06.636Z,-1.62
2023-01-25T21:36:33.511Z,-1.59
2023-01-25T21:39:00.370Z,-1.58
2023-01-25T21:41:30.329Z,-1.61
2023-01-25T21:44:17.664Z,-1.64
2023-01-25T21:47:04.153Z,-1.65
2023-01-25T21:49:50.677Z,-1.69
2023-01-25T21:52:17.421Z,-1.70
2023-01-25T21:54:46.927Z,-1.73
2023-01-25T21:57:13.767Z,-1.71
2023-01-25T21:59:41.104Z,-1.66
2023-01-25T22:02:12.133Z,-1.61
2023-01-25T22:04:38.864Z,-1.59
2023-01-25T22:07:06.930Z,-1.61
2023-01-25T22:09:33.643Z,-1.69
2023-01-25T22:12:02.000Z,-1.74
2023-01-25T22:14:28.998Z,-1.75
2023-01-25T22:16:56.206Z,-1.80
2023-01-25T22:19:23.088Z,-1.82
2023-01-25T22:21:49.882Z,-1.87
2023-01-25T22:24:16.960Z,-1.84
2023-01-25T22:27:08.421Z,-1.83
2023-01-25T22:29:36.948Z,-1.87
2023-01-25T22:32:06.848Z,-1.81
2023-01-25T22:34:33.605Z,-1.88
2023-01-25T22:37:00.348Z,-1.87
2023-01-25T22:39:27.135Z,-1.89
2023-01-25T22:41:53.997Z,-1.92
2023-01-25T22:44:22.246Z,-1.89
2023-01-25T22:46:50.724Z,-1.89
2023-01-25T22:49:17.489Z,-1.92
2023-01-25T22:51:44.251Z,-1.94
2023-01-25T22:54:10.969Z,-1.91
2023-01-25T22:56:39.548Z,-1.89
2023-01-25T22:59:08.083Z,-1.85
2023-01-25T23:01:35.164Z,-1.85
2023-01-25T23:04:02.425Z,-1.79
2023-01-25T23:06:31.826Z,-1.78
2023-01-25T23:09:00.639Z,-1.80
2023-01-25T23:11:39.749Z,-1.82
2023-01-25T23:14:30.640Z,-1.84
2023-01-25T23:17:17.561Z,-1.78
2023-01-25T23:19:44.447Z,-1.73
2023-01-25T23:22:11.159Z,-1.73
2023-01-25T23:24:37.865Z,-1.75
2023-01-25T23:27:09.005Z,-1.75
2023-01-25T23:29:37.202Z,-1.73
2023-01-25T23:32:03.965Z,-1.71
2023-01-25T23:34:34.916Z,-1.72
2023-01-25T23:37:01.653Z,-1.80
2023-01-25T23:39:28.381Z,-1.74
2023-01-25T23:41:55.266Z,-1.71
2023-01-25T23:44:22.015Z,-1.67
2023-01-25T23:46:49.265Z,-1.68
2023-01-25T23:49:16.043Z,-1.71
2023-01-25T23:51:42.896Z,-1.66
2023-01-25T23:54:09.565Z,-1.69
2023-01-25T23:56:36.269Z,-1.64
2023-01-25T23:59:03.186Z,-1.67
